sensor_id;sensor_type;location;lat;lon;timestamp;P1;durP1;ratioP1;P2;durP2;ratioP2
74626;SDS011;63132;52.268;5.192;2023-10-08T00:01:17;30.77;;;8.57;;
74626;SDS011;63132;52.268;5.192;2023-10-08T00:03:43;29.67;;;7.82;;
74626;SDS011;63132;52.268;5.192;2023-10-08T00:06:23;32.42;;;8.35;;
74626;SDS011;63132;52.268;5.192;2023-10-08T00:08:49;26.85;;;8.18;;
74626;SDS011;63132;52.268;5.192;2023-10-08T00:11:15;28.88;;;8.77;;
74626;SDS011;63132;52.268;5.192;2023-10-08T00:13:42;34.88;;;8.25;;
74626;SDS011;63132;52.268;5.192;2023-10-08T00:16:09;36.35;;;7.72;;
74626;SDS011;63132;52.268;5.192;2023-10-08T00:18:36;43.67;;;9.05;;
74626;SDS011;63132;52.268;5.192;2023-10-08T00:21:03;34.72;;;7.72;;
74626;SDS011;63132;52.268;5.192;2023-10-08T00:23:35;37.63;;;9.90;;
74626;SDS011;63132;52.268;5.192;2023-10-08T00:26:01;33.22;;;9.02;;
74626;SDS011;63132;52.268;5.192;2023-10-08T00:28:30;38.30;;;8.88;;
74626;SDS011;63132;52.268;5.192;2023-10-08T00:30:56;29.90;;;8.32;;
74626;SDS011;63132;52.268;5.192;2023-10-08T00:33:38;33.30;;;8.00;;
74626;SDS011;63132;52.268;5.192;2023-10-08T00:36:04;35.92;;;8.15;;
74626;SDS011;63132;52.268;5.192;2023-10-08T00:38:45;28.88;;;8.57;;
74626;SDS011;63132;52.268;5.192;2023-10-08T00:41:20;25.98;;;7.55;;
74626;SDS011;63132;52.268;5.192;2023-10-08T00:43:53;26.60;;;7.45;;
74626;SDS011;63132;52.268;5.192;2023-10-08T00:46:21;27.75;;;7.40;;
74626;SDS011;63132;52.268;5.192;2023-10-08T00:48:52;25.88;;;7.57;;
74626;SDS011;63132;52.268;5.192;2023-10-08T00:51:19;23.70;;;7.40;;
74626;SDS011;63132;52.268;5.192;2023-10-08T00:53:47;29.50;;;7.72;;
74626;SDS011;63132;52.268;5.192;2023-10-08T00:56:17;21.30;;;8.32;;
74626;SDS011;63132;52.268;5.192;2023-10-08T00:58:44;27.60;;;7.32;;
74626;SDS011;63132;52.268;5.192;2023-10-08T01:01:18;23.60;;;6.65;;
74626;SDS011;63132;52.268;5.192;2023-10-08T01:03:47;25.75;;;7.50;;
74626;SDS011;63132;52.268;5.192;2023-10-08T01:06:15;24.92;;;7.35;;
74626;SDS011;63132;52.268;5.192;2023-10-08T01:08:46;29.02;;;8.27;;
74626;SDS011;63132;52.268;5.192;2023-10-08T01:11:23;25.27;;;7.93;;
74626;SDS011;63132;52.268;5.192;2023-10-08T01:14:10;22.73;;;6.95;;
74626;SDS011;63132;52.268;5.192;2023-10-08T01:16:36;28.25;;;7.32;;
74626;SDS011;63132;52.268;5.192;2023-10-08T01:19:01;24.38;;;7.32;;
74626;SDS011;63132;52.268;5.192;2023-10-08T01:21:30;21.35;;;7.07;;
74626;SDS011;63132;52.268;5.192;2023-10-08T01:24:04;23.15;;;7.60;;
74626;SDS011;63132;52.268;5.192;2023-10-08T01:26:35;27.70;;;7.55;;
74626;SDS011;63132;52.268;5.192;2023-10-08T01:29:04;19.48;;;7.97;;
74626;SDS011;63132;52.268;5.192;2023-10-08T01:31:31;25.02;;;7.30;;
74626;SDS011;63132;52.268;5.192;2023-10-08T01:33:57;43.70;;;9.82;;
74626;SDS011;63132;52.268;5.192;2023-10-08T01:36:24;37.67;;;8.73;;
74626;SDS011;63132;52.268;5.192;2023-10-08T01:38:50;21.48;;;8.20;;
74626;SDS011;63132;52.268;5.192;2023-10-08T01:41:16;29.80;;;9.23;;
74626;SDS011;63132;52.268;5.192;2023-10-08T01:43:46;28.40;;;10.30;;
74626;SDS011;63132;52.268;5.192;2023-10-08T01:46:11;32.55;;;9.52;;
74626;SDS011;63132;52.268;5.192;2023-10-08T01:48:37;26.25;;;10.25;;
74626;SDS011;63132;52.268;5.192;2023-10-08T01:51:04;31.60;;;10.60;;
74626;SDS011;63132;52.268;5.192;2023-10-08T01:53:40;24.77;;;9.27;;
74626;SDS011;63132;52.268;5.192;2023-10-08T01:56:06;30.75;;;10.20;;
74626;SDS011;63132;52.268;5.192;2023-10-08T01:58:32;30.63;;;10.38;;
74626;SDS011;63132;52.268;5.192;2023-10-08T02:01:00;21.58;;;8.88;;
74626;SDS011;63132;52.268;5.192;2023-10-08T02:03:25;28.67;;;10.50;;
74626;SDS011;63132;52.268;5.192;2023-10-08T02:05:52;31.75;;;10.23;;
74626;SDS011;63132;52.268;5.192;2023-10-08T02:08:24;36.08;;;11.15;;
74626;SDS011;63132;52.268;5.192;2023-10-08T02:10:51;29.73;;;10.57;;
74626;SDS011;63132;52.268;5.192;2023-10-08T02:13:17;27.05;;;10.70;;
74626;SDS011;63132;52.268;5.192;2023-10-08T02:15:44;31.80;;;10.43;;
74626;SDS011;63132;52.268;5.192;2023-10-08T02:18:17;32.95;;;11.45;;
74626;SDS011;63132;52.268;5.192;2023-10-08T02:20:46;30.58;;;10.40;;
74626;SDS011;63132;52.268;5.192;2023-10-08T02:23:13;28.08;;;9.95;;
74626;SDS011;63132;52.268;5.192;2023-10-08T02:25:38;39.13;;;10.77;;
74626;SDS011;63132;52.268;5.192;2023-10-08T02:28:07;32.58;;;10.05;;
74626;SDS011;63132;52.268;5.192;2023-10-08T02:30:38;35.55;;;9.85;;
74626;SDS011;63132;52.268;5.192;2023-10-08T02:33:04;33.85;;;10.02;;
74626;SDS011;63132;52.268;5.192;2023-10-08T02:35:39;29.67;;;10.05;;
74626;SDS011;63132;52.268;5.192;2023-10-08T02:38:11;29.08;;;9.43;;
74626;SDS011;63132;52.268;5.192;2023-10-08T02:40:38;31.52;;;10.30;;
74626;SDS011;63132;52.268;5.192;2023-10-08T02:43:09;30.88;;;10.00;;
74626;SDS011;63132;52.268;5.192;2023-10-08T02:45:36;27.00;;;9.65;;
74626;SDS011;63132;52.268;5.192;2023-10-08T02:48:04;24.45;;;10.07;;
74626;SDS011;63132;52.268;5.192;2023-10-08T02:50:37;27.45;;;9.57;;
74626;SDS011;63132;52.268;5.192;2023-10-08T02:53:05;39.95;;;10.70;;
74626;SDS011;63132;52.268;5.192;2023-10-08T02:55:36;29.58;;;9.85;;
74626;SDS011;63132;52.268;5.192;2023-10-08T02:58:07;36.05;;;11.20;;
74626;SDS011;63132;52.268;5.192;2023-10-08T03:00:35;34.17;;;10.50;;
74626;SDS011;63132;52.268;5.192;2023-10-08T03:03:01;37.83;;;10.43;;
74626;SDS011;63132;52.268;5.192;2023-10-08T03:05:27;36.20;;;9.88;;
74626;SDS011;63132;52.268;5.192;2023-10-08T03:07:56;31.35;;;9.70;;
74626;SDS011;63132;52.268;5.192;2023-10-08T03:10:22;33.40;;;10.57;;
74626;SDS011;63132;52.268;5.192;2023-10-08T03:12:48;34.22;;;10.90;;
74626;SDS011;63132;52.268;5.192;2023-10-08T03:15:14;37.38;;;11.07;;
74626;SDS011;63132;52.268;5.192;2023-10-08T03:18:06;31.30;;;9.50;;
74626;SDS011;63132;52.268;5.192;2023-10-08T03:20:36;28.88;;;9.98;;
74626;SDS011;63132;52.268;5.192;2023-10-08T03:23:09;41.45;;;10.60;;
74626;SDS011;63132;52.268;5.192;2023-10-08T03:25:55;46.88;;;10.48;;
74626;SDS011;63132;52.268;5.192;2023-10-08T03:28:36;39.60;;;9.23;;
74626;SDS011;63132;52.268;5.192;2023-10-08T03:31:02;39.17;;;9.60;;
74626;SDS011;63132;52.268;5.192;2023-10-08T03:33:33;38.15;;;9.32;;
74626;SDS011;63132;52.268;5.192;2023-10-08T03:36:03;48.15;;;9.93;;
74626;SDS011;63132;52.268;5.192;2023-10-08T03:38:34;36.75;;;8.75;;
74626;SDS011;63132;52.268;5.192;2023-10-08T03:41:26;34.45;;;8.60;;
74626;SDS011;63132;52.268;5.192;2023-10-08T03:43:55;36.75;;;9.15;;
74626;SDS011;63132;52.268;5.192;2023-10-08T03:46:26;40.33;;;10.13;;
74626;SDS011;63132;52.268;5.192;2023-10-08T03:48:51;30.80;;;9.45;;
74626;SDS011;63132;52.268;5.192;2023-10-08T03:51:20;27.58;;;9.20;;
74626;SDS011;63132;52.268;5.192;2023-10-08T03:53:46;41.22;;;8.48;;
74626;SDS011;63132;52.268;5.192;2023-10-08T03:56:35;24.60;;;8.13;;
74626;SDS011;63132;52.268;5.192;2023-10-08T03:59:02;23.77;;;6.95;;
74626;SDS011;63132;52.268;5.192;2023-10-08T04:01:42;30.77;;;7.13;;
74626;SDS011;63132;52.268;5.192;2023-10-08T04:04:08;27.10;;;7.60;;
74626;SDS011;63132;52.268;5.192;2023-10-08T04:06:40;19.92;;;6.78;;
74626;SDS011;63132;52.268;5.192;2023-10-08T04:09:13;23.17;;;6.78;;
74626;SDS011;63132;52.268;5.192;2023-10-08T04:11:45;20.52;;;7.50;;
74626;SDS011;63132;52.268;5.192;2023-10-08T04:14:20;29.88;;;7.25;;
74626;SDS011;63132;52.268;5.192;2023-10-08T04:16:48;21.35;;;7.32;;
74626;SDS011;63132;52.268;5.192;2023-10-08T04:19:23;28.02;;;6.22;;
74626;SDS011;63132;52.268;5.192;2023-10-08T04:21:52;20.08;;;6.25;;
74626;SDS011;63132;52.268;5.192;2023-10-08T04:24:24;21.27;;;5.57;;
74626;SDS011;63132;52.268;5.192;2023-10-08T04:26:59;20.70;;;5.20;;
74626;SDS011;63132;52.268;5.192;2023-10-08T04:29:28;15.40;;;4.90;;
74626;SDS011;63132;52.268;5.192;2023-10-08T04:31:57;18.00;;;4.88;;
74626;SDS011;63132;52.268;5.192;2023-10-08T04:34:37;18.77;;;4.93;;
74626;SDS011;63132;52.268;5.192;2023-10-08T04:39:29;16.90;;;4.70;;
74626;SDS011;63132;52.268;5.192;2023-10-08T04:42:00;25.58;;;5.22;;
74626;SDS011;63132;52.268;5.192;2023-10-08T04:44:36;12.40;;;4.80;;
74626;SDS011;63132;52.268;5.192;2023-10-08T04:47:04;14.13;;;4.32;;
74626;SDS011;63132;52.268;5.192;2023-10-08T04:49:31;13.40;;;4.20;;
74626;SDS011;63132;52.268;5.192;2023-10-08T04:52:00;11.65;;;4.30;;
74626;SDS011;63132;52.268;5.192;2023-10-08T04:54:38;13.27;;;3.53;;
74626;SDS011;63132;52.268;5.192;2023-10-08T04:57:05;14.70;;;3.78;;
74626;SDS011;63132;52.268;5.192;2023-10-08T04:59:40;14.70;;;3.88;;
74626;SDS011;63132;52.268;5.192;2023-10-08T05:02:08;14.80;;;3.90;;
74626;SDS011;63132;52.268;5.192;2023-10-08T05:04:53;13.27;;;3.97;;
74626;SDS011;63132;52.268;5.192;2023-10-08T05:07:31;11.85;;;3.45;;
74626;SDS011;63132;52.268;5.192;2023-10-08T05:10:12;13.93;;;3.90;;
74626;SDS011;63132;52.268;5.192;2023-10-08T05:12:44;11.55;;;2.88;;
74626;SDS011;63132;52.268;5.192;2023-10-08T05:15:26;9.60;;;3.03;;
74626;SDS011;63132;52.268;5.192;2023-10-08T05:18:00;9.13;;;2.50;;
74626;SDS011;63132;52.268;5.192;2023-10-08T05:20:49;9.63;;;2.47;;
74626;SDS011;63132;52.268;5.192;2023-10-08T05:23:15;7.20;;;3.00;;
74626;SDS011;63132;52.268;5.192;2023-10-08T05:25:56;9.00;;;2.75;;
74626;SDS011;63132;52.268;5.192;2023-10-08T05:28:22;8.02;;;2.97;;
74626;SDS011;63132;52.268;5.192;2023-10-08T05:30:51;7.35;;;2.88;;
74626;SDS011;63132;52.268;5.192;2023-10-08T05:33:35;8.70;;;3.42;;
74626;SDS011;63132;52.268;5.192;2023-10-08T05:36:19;14.18;;;3.95;;
74626;SDS011;63132;52.268;5.192;2023-10-08T05:38:53;8.85;;;3.63;;
74626;SDS011;63132;52.268;5.192;2023-10-08T05:41:45;9.30;;;4.00;;
74626;SDS011;63132;52.268;5.192;2023-10-08T05:44:17;9.68;;;3.70;;
74626;SDS011;63132;52.268;5.192;2023-10-08T05:46:43;12.40;;;4.22;;
74626;SDS011;63132;52.268;5.192;2023-10-08T05:49:21;9.20;;;4.15;;
74626;SDS011;63132;52.268;5.192;2023-10-08T05:51:56;10.50;;;4.68;;
74626;SDS011;63132;52.268;5.192;2023-10-08T05:57:03;10.65;;;3.92;;
74626;SDS011;63132;52.268;5.192;2023-10-08T05:59:45;10.10;;;4.07;;
74626;SDS011;63132;52.268;5.192;2023-10-08T06:02:21;8.50;;;4.10;;
74626;SDS011;63132;52.268;5.192;2023-10-08T06:04:54;15.70;;;4.28;;
74626;SDS011;63132;52.268;5.192;2023-10-08T06:07:40;6.65;;;3.53;;
74626;SDS011;63132;52.268;5.192;2023-10-08T06:10:29;7.93;;;3.22;;
74626;SDS011;63132;52.268;5.192;2023-10-08T06:16:10;11.90;;;3.50;;
74626;SDS011;63132;52.268;5.192;2023-10-08T06:18:38;7.63;;;3.08;;
74626;SDS011;63132;52.268;5.192;2023-10-08T06:23:33;10.52;;;2.92;;
74626;SDS011;63132;52.268;5.192;2023-10-08T06:26:00;6.50;;;2.92;;
74626;SDS011;63132;52.268;5.192;2023-10-08T06:28:35;8.80;;;3.00;;
74626;SDS011;63132;52.268;5.192;2023-10-08T06:31:02;7.55;;;3.25;;
74626;SDS011;63132;52.268;5.192;2023-10-08T06:33:31;6.85;;;2.60;;
74626;SDS011;63132;52.268;5.192;2023-10-08T06:35:58;9.45;;;2.63;;
74626;SDS011;63132;52.268;5.192;2023-10-08T06:38:34;6.90;;;2.40;;
74626;SDS011;63132;52.268;5.192;2023-10-08T06:41:00;7.18;;;2.42;;
74626;SDS011;63132;52.268;5.192;2023-10-08T06:43:40;7.25;;;2.20;;
74626;SDS011;63132;52.268;5.192;2023-10-08T06:46:13;5.88;;;2.03;;
74626;SDS011;63132;52.268;5.192;2023-10-08T06:48:39;5.03;;;2.22;;
74626;SDS011;63132;52.268;5.192;2023-10-08T06:51:08;6.13;;;2.17;;
74626;SDS011;63132;52.268;5.192;2023-10-08T06:53:41;5.03;;;2.35;;
74626;SDS011;63132;52.268;5.192;2023-10-08T06:56:10;9.38;;;4.93;;
74626;SDS011;63132;52.268;5.192;2023-10-08T06:58:37;7.85;;;2.63;;
74626;SDS011;63132;52.268;5.192;2023-10-08T07:01:03;5.57;;;2.47;;
74626;SDS011;63132;52.268;5.192;2023-10-08T07:03:30;6.15;;;2.75;;
74626;SDS011;63132;52.268;5.192;2023-10-08T07:05:56;7.03;;;2.72;;
74626;SDS011;63132;52.268;5.192;2023-10-08T07:08:30;6.38;;;2.47;;
74626;SDS011;63132;52.268;5.192;2023-10-08T07:10:57;5.30;;;2.33;;
74626;SDS011;63132;52.268;5.192;2023-10-08T07:13:24;6.38;;;3.10;;
74626;SDS011;63132;52.268;5.192;2023-10-08T07:18:16;5.55;;;2.70;;
74626;SDS011;63132;52.268;5.192;2023-10-08T07:20:52;5.18;;;2.40;;
74626;SDS011;63132;52.268;5.192;2023-10-08T07:23:20;4.13;;;1.90;;
74626;SDS011;63132;52.268;5.192;2023-10-08T07:25:58;3.60;;;1.92;;
74626;SDS011;63132;52.268;5.192;2023-10-08T07:28:37;4.57;;;1.40;;
74626;SDS011;63132;52.268;5.192;2023-10-08T07:31:05;4.18;;;1.33;;
74626;SDS011;63132;52.268;5.192;2023-10-08T07:33:42;2.72;;;1.38;;
74626;SDS011;63132;52.268;5.192;2023-10-08T07:36:10;3.20;;;0.95;;
74626;SDS011;63132;52.268;5.192;2023-10-08T07:38:43;3.60;;;0.93;;
74626;SDS011;63132;52.268;5.192;2023-10-08T07:41:10;4.68;;;1.38;;
74626;SDS011;63132;52.268;5.192;2023-10-08T07:43:39;3.80;;;0.90;;
74626;SDS011;63132;52.268;5.192;2023-10-08T07:46:07;6.40;;;1.73;;
74626;SDS011;63132;52.268;5.192;2023-10-08T07:48:34;3.53;;;0.73;;
74626;SDS011;63132;52.268;5.192;2023-10-08T07:51:00;3.40;;;0.90;;
74626;SDS011;63132;52.268;5.192;2023-10-08T07:56:02;2.35;;;1.10;;
74626;SDS011;63132;52.268;5.192;2023-10-08T07:58:36;1.88;;;0.75;;
74626;SDS011;63132;52.268;5.192;2023-10-08T08:01:06;3.28;;;1.20;;
74626;SDS011;63132;52.268;5.192;2023-10-08T08:03:33;2.95;;;1.10;;
74626;SDS011;63132;52.268;5.192;2023-10-08T08:06:01;3.85;;;0.95;;
74626;SDS011;63132;52.268;5.192;2023-10-08T08:08:34;1.35;;;0.90;;
74626;SDS011;63132;52.268;5.192;2023-10-08T08:11:01;4.07;;;1.40;;
74626;SDS011;63132;52.268;5.192;2023-10-08T08:13:43;3.28;;;1.08;;
74626;SDS011;63132;52.268;5.192;2023-10-08T08:16:13;1.83;;;1.08;;
74626;SDS011;63132;52.268;5.192;2023-10-08T08:18:43;2.45;;;1.00;;
74626;SDS011;63132;52.268;5.192;2023-10-08T08:21:14;2.38;;;1.10;;
74626;SDS011;63132;52.268;5.192;2023-10-08T08:23:44;2.78;;;1.10;;
74626;SDS011;63132;52.268;5.192;2023-10-08T08:26:17;5.22;;;1.70;;
74626;SDS011;63132;52.268;5.192;2023-10-08T08:28:55;2.97;;;1.23;;
74626;SDS011;63132;52.268;5.192;2023-10-08T08:31:22;4.20;;;1.48;;
74626;SDS011;63132;52.268;5.192;2023-10-08T08:33:48;4.97;;;1.50;;
74626;SDS011;63132;52.268;5.192;2023-10-08T08:36:24;4.25;;;1.60;;
74626;SDS011;63132;52.268;5.192;2023-10-08T08:38:52;3.28;;;1.27;;
74626;SDS011;63132;52.268;5.192;2023-10-08T08:41:17;5.75;;;1.50;;
74626;SDS011;63132;52.268;5.192;2023-10-08T08:43:44;3.13;;;1.48;;
74626;SDS011;63132;52.268;5.192;2023-10-08T08:46:13;4.15;;;1.45;;
74626;SDS011;63132;52.268;5.192;2023-10-08T08:48:40;4.30;;;1.48;;
74626;SDS011;63132;52.268;5.192;2023-10-08T08:51:06;6.00;;;1.48;;
74626;SDS011;63132;52.268;5.192;2023-10-08T08:53:32;13.63;;;1.75;;
74626;SDS011;63132;52.268;5.192;2023-10-08T08:55:59;6.30;;;1.33;;
74626;SDS011;63132;52.268;5.192;2023-10-08T08:58:29;5.32;;;1.70;;
74626;SDS011;63132;52.268;5.192;2023-10-08T09:01:05;3.33;;;1.50;;
74626;SDS011;63132;52.268;5.192;2023-10-08T09:03:34;6.38;;;1.95;;
74626;SDS011;63132;52.268;5.192;2023-10-08T09:06:00;4.22;;;1.58;;
74626;SDS011;63132;52.268;5.192;2023-10-08T09:08:27;4.20;;;1.90;;
74626;SDS011;63132;52.268;5.192;2023-10-08T09:11:02;9.30;;;1.85;;
74626;SDS011;63132;52.268;5.192;2023-10-08T09:13:30;7.05;;;1.77;;
74626;SDS011;63132;52.268;5.192;2023-10-08T09:18:33;6.70;;;2.00;;
74626;SDS011;63132;52.268;5.192;2023-10-08T09:21:13;7.18;;;1.88;;
74626;SDS011;63132;52.268;5.192;2023-10-08T09:23:43;4.05;;;1.60;;
74626;SDS011;63132;52.268;5.192;2023-10-08T09:26:10;6.88;;;2.13;;
74626;SDS011;63132;52.268;5.192;2023-10-08T09:28:36;5.13;;;2.70;;
74626;SDS011;63132;52.268;5.192;2023-10-08T09:31:03;9.63;;;3.65;;
74626;SDS011;63132;52.268;5.192;2023-10-08T09:33:30;7.55;;;2.17;;
74626;SDS011;63132;52.268;5.192;2023-10-08T09:35:55;5.22;;;2.13;;
74626;SDS011;63132;52.268;5.192;2023-10-08T09:38:27;15.38;;;2.22;;
74626;SDS011;63132;52.268;5.192;2023-10-08T09:40:55;6.13;;;1.80;;
74626;SDS011;63132;52.268;5.192;2023-10-08T09:43:22;6.03;;;2.08;;
74626;SDS011;63132;52.268;5.192;2023-10-08T09:45:54;7.28;;;2.08;;
74626;SDS011;63132;52.268;5.192;2023-10-08T09:48:25;7.75;;;1.80;;
74626;SDS011;63132;52.268;5.192;2023-10-08T09:50:52;4.28;;;1.80;;
74626;SDS011;63132;52.268;5.192;2023-10-08T09:53:22;4.20;;;1.80;;
74626;SDS011;63132;52.268;5.192;2023-10-08T09:55:57;6.03;;;1.95;;
74626;SDS011;63132;52.268;5.192;2023-10-08T09:58:23;5.20;;;1.83;;
74626;SDS011;63132;52.268;5.192;2023-10-08T10:00:51;4.65;;;1.80;;
74626;SDS011;63132;52.268;5.192;2023-10-08T10:03:19;6.82;;;3.35;;
74626;SDS011;63132;52.268;5.192;2023-10-08T10:05:46;6.85;;;2.00;;
74626;SDS011;63132;52.268;5.192;2023-10-08T10:08:13;2.60;;;1.30;;
74626;SDS011;63132;52.268;5.192;2023-10-08T10:10:39;4.80;;;1.77;;
74626;SDS011;63132;52.268;5.192;2023-10-08T10:13:05;6.68;;;1.80;;
74626;SDS011;63132;52.268;5.192;2023-10-08T10:15:34;3.50;;;2.03;;
74626;SDS011;63132;52.268;5.192;2023-10-08T10:18:26;5.57;;;1.58;;
74626;SDS011;63132;52.268;5.192;2023-10-08T10:23:49;5.82;;;1.58;;
74626;SDS011;63132;52.268;5.192;2023-10-08T10:26:34;6.75;;;1.92;;
74626;SDS011;63132;52.268;5.192;2023-10-08T10:31:41;4.72;;;1.75;;
74626;SDS011;63132;52.268;5.192;2023-10-08T10:34:11;6.28;;;1.98;;
74626;SDS011;63132;52.268;5.192;2023-10-08T10:36:38;5.07;;;1.90;;
74626;SDS011;63132;52.268;5.192;2023-10-08T10:39:07;6.53;;;1.80;;
74626;SDS011;63132;52.268;5.192;2023-10-08T10:41:51;5.22;;;1.73;;
74626;SDS011;63132;52.268;5.192;2023-10-08T10:44:26;6.38;;;1.65;;
74626;SDS011;63132;52.268;5.192;2023-10-08T10:46:55;6.90;;;1.88;;
74626;SDS011;63132;52.268;5.192;2023-10-08T10:49:40;4.60;;;1.63;;
74626;SDS011;63132;52.268;5.192;2023-10-08T10:52:24;7.72;;;1.58;;
74626;SDS011;63132;52.268;5.192;2023-10-08T10:55:03;6.22;;;1.92;;
74626;SDS011;63132;52.268;5.192;2023-10-08T10:57:43;6.03;;;1.80;;
74626;SDS011;63132;52.268;5.192;2023-10-08T11:03:04;10.32;;;2.53;;
74626;SDS011;63132;52.268;5.192;2023-10-08T11:05:46;4.40;;;1.52;;
74626;SDS011;63132;52.268;5.192;2023-10-08T11:08:16;5.57;;;1.60;;
74626;SDS011;63132;52.268;5.192;2023-10-08T11:10:48;6.28;;;1.73;;
74626;SDS011;63132;52.268;5.192;2023-10-08T11:13:18;5.15;;;1.98;;
74626;SDS011;63132;52.268;5.192;2023-10-08T11:15:46;4.28;;;1.85;;
74626;SDS011;63132;52.268;5.192;2023-10-08T11:18:20;6.28;;;1.90;;
74626;SDS011;63132;52.268;5.192;2023-10-08T11:20:48;4.35;;;1.80;;
74626;SDS011;63132;52.268;5.192;2023-10-08T11:23:37;5.40;;;2.10;;
74626;SDS011;63132;52.268;5.192;2023-10-08T11:26:07;6.50;;;2.15;;
74626;SDS011;63132;52.268;5.192;2023-10-08T11:28:34;7.32;;;1.70;;
74626;SDS011;63132;52.268;5.192;2023-10-08T11:31:06;9.43;;;2.28;;
74626;SDS011;63132;52.268;5.192;2023-10-08T11:33:43;3.85;;;1.70;;
74626;SDS011;63132;52.268;5.192;2023-10-08T11:36:21;8.90;;;1.80;;
74626;SDS011;63132;52.268;5.192;2023-10-08T11:38:54;6.60;;;1.98;;
74626;SDS011;63132;52.268;5.192;2023-10-08T11:41:26;3.50;;;1.73;;
74626;SDS011;63132;52.268;5.192;2023-10-08T11:43:53;4.68;;;1.60;;
74626;SDS011;63132;52.268;5.192;2023-10-08T11:46:23;8.18;;;1.90;;
74626;SDS011;63132;52.268;5.192;2023-10-08T11:48:56;5.47;;;2.47;;
74626;SDS011;63132;52.268;5.192;2023-10-08T11:51:23;9.35;;;2.42;;
74626;SDS011;63132;52.268;5.192;2023-10-08T11:53:50;5.45;;;1.90;;
74626;SDS011;63132;52.268;5.192;2023-10-08T11:56:16;6.85;;;2.13;;
74626;SDS011;63132;52.268;5.192;2023-10-08T11:58:44;8.90;;;2.47;;
74626;SDS011;63132;52.268;5.192;2023-10-08T12:01:12;4.20;;;2.30;;
74626;SDS011;63132;52.268;5.192;2023-10-08T12:03:42;4.32;;;2.50;;
74626;SDS011;63132;52.268;5.192;2023-10-08T12:06:09;6.07;;;2.78;;
74626;SDS011;63132;52.268;5.192;2023-10-08T12:08:40;6.68;;;3.47;;
74626;SDS011;63132;52.268;5.192;2023-10-08T12:11:13;6.68;;;3.45;;
74626;SDS011;63132;52.268;5.192;2023-10-08T12:13:39;8.13;;;3.00;;
74626;SDS011;63132;52.268;5.192;2023-10-08T12:16:12;5.30;;;3.08;;
74626;SDS011;63132;52.268;5.192;2023-10-08T12:18:46;6.00;;;2.95;;
74626;SDS011;63132;52.268;5.192;2023-10-08T12:21:23;5.82;;;2.70;;
74626;SDS011;63132;52.268;5.192;2023-10-08T12:23:56;7.35;;;3.35;;
74626;SDS011;63132;52.268;5.192;2023-10-08T12:26:22;5.93;;;2.70;;
74626;SDS011;63132;52.268;5.192;2023-10-08T12:28:48;6.32;;;3.13;;
74626;SDS011;63132;52.268;5.192;2023-10-08T12:31:17;6.82;;;2.85;;
74626;SDS011;63132;52.268;5.192;2023-10-08T12:33:47;7.70;;;3.65;;
74626;SDS011;63132;52.268;5.192;2023-10-08T12:36:16;8.10;;;3.58;;
74626;SDS011;63132;52.268;5.192;2023-10-08T12:38:42;6.25;;;3.20;;
74626;SDS011;63132;52.268;5.192;2023-10-08T12:41:11;6.38;;;3.10;;
74626;SDS011;63132;52.268;5.192;2023-10-08T12:43:37;9.88;;;4.00;;
74626;SDS011;63132;52.268;5.192;2023-10-08T12:46:04;8.63;;;3.50;;
74626;SDS011;63132;52.268;5.192;2023-10-08T12:48:35;5.63;;;3.72;;
74626;SDS011;63132;52.268;5.192;2023-10-08T12:51:01;9.63;;;4.50;;
74626;SDS011;63132;52.268;5.192;2023-10-08T12:53:30;11.68;;;4.47;;
74626;SDS011;63132;52.268;5.192;2023-10-08T12:55:59;5.30;;;3.88;;
74626;SDS011;63132;52.268;5.192;2023-10-08T12:58:30;7.35;;;3.92;;
74626;SDS011;63132;52.268;5.192;2023-10-08T13:00:59;6.32;;;3.78;;
74626;SDS011;63132;52.268;5.192;2023-10-08T13:03:28;8.98;;;4.13;;
74626;SDS011;63132;52.268;5.192;2023-10-08T13:05:57;9.20;;;4.03;;
74626;SDS011;63132;52.268;5.192;2023-10-08T13:08:30;7.13;;;4.00;;
74626;SDS011;63132;52.268;5.192;2023-10-08T13:10:57;5.97;;;4.22;;
74626;SDS011;63132;52.268;5.192;2023-10-08T13:13:26;7.53;;;4.32;;
74626;SDS011;63132;52.268;5.192;2023-10-08T13:15:52;8.00;;;4.13;;
74626;SDS011;63132;52.268;5.192;2023-10-08T13:18:21;5.78;;;4.05;;
74626;SDS011;63132;52.268;5.192;2023-10-08T13:20:46;7.53;;;4.30;;
74626;SDS011;63132;52.268;5.192;2023-10-08T13:23:13;5.57;;;3.85;;
74626;SDS011;63132;52.268;5.192;2023-10-08T13:25:38;10.98;;;4.55;;
74626;SDS011;63132;52.268;5.192;2023-10-08T13:28:04;7.53;;;4.53;;
74626;SDS011;63132;52.268;5.192;2023-10-08T13:30:32;6.20;;;4.28;;
74626;SDS011;63132;52.268;5.192;2023-10-08T13:32:58;6.47;;;4.15;;
74626;SDS011;63132;52.268;5.192;2023-10-08T13:35:24;6.93;;;3.90;;
74626;SDS011;63132;52.268;5.192;2023-10-08T13:37:50;8.82;;;3.85;;
74626;SDS011;63132;52.268;5.192;2023-10-08T13:40:15;6.55;;;3.47;;
74626;SDS011;63132;52.268;5.192;2023-10-08T13:42:41;6.50;;;3.13;;
74626;SDS011;63132;52.268;5.192;2023-10-08T13:45:07;7.25;;;3.45;;
74626;SDS011;63132;52.268;5.192;2023-10-08T13:47:34;6.18;;;3.28;;
74626;SDS011;63132;52.268;5.192;2023-10-08T13:49:59;7.03;;;3.22;;
74626;SDS011;63132;52.268;5.192;2023-10-08T13:52:25;7.82;;;3.33;;
74626;SDS011;63132;52.268;5.192;2023-10-08T13:54:54;8.45;;;3.78;;
74626;SDS011;63132;52.268;5.192;2023-10-08T13:57:19;9.65;;;3.58;;
74626;SDS011;63132;52.268;5.192;2023-10-08T13:59:46;9.73;;;3.85;;
74626;SDS011;63132;52.268;5.192;2023-10-08T14:02:12;7.68;;;3.08;;
74626;SDS011;63132;52.268;5.192;2023-10-08T14:04:41;11.57;;;3.35;;
74626;SDS011;63132;52.268;5.192;2023-10-08T14:07:08;7.10;;;3.47;;
74626;SDS011;63132;52.268;5.192;2023-10-08T14:09:38;7.32;;;2.58;;
74626;SDS011;63132;52.268;5.192;2023-10-08T14:12:06;5.97;;;2.88;;
74626;SDS011;63132;52.268;5.192;2023-10-08T14:14:32;5.43;;;2.95;;
74626;SDS011;63132;52.268;5.192;2023-10-08T14:16:59;9.43;;;2.80;;
74626;SDS011;63132;52.268;5.192;2023-10-08T14:19:31;7.72;;;3.17;;
74626;SDS011;63132;52.268;5.192;2023-10-08T14:22:16;10.30;;;3.38;;
74626;SDS011;63132;52.268;5.192;2023-10-08T14:24:44;7.57;;;3.20;;
74626;SDS011;63132;52.268;5.192;2023-10-08T14:27:11;7.03;;;3.08;;
74626;SDS011;63132;52.268;5.192;2023-10-08T14:29:39;8.30;;;3.00;;
74626;SDS011;63132;52.268;5.192;2023-10-08T14:32:05;6.95;;;3.25;;
74626;SDS011;63132;52.268;5.192;2023-10-08T14:34:34;7.47;;;3.28;;
74626;SDS011;63132;52.268;5.192;2023-10-08T14:37:19;6.63;;;2.70;;
74626;SDS011;63132;52.268;5.192;2023-10-08T14:40:03;7.30;;;2.60;;
74626;SDS011;63132;52.268;5.192;2023-10-08T14:42:48;9.88;;;3.33;;
74626;SDS011;63132;52.268;5.192;2023-10-08T14:45:30;8.70;;;2.60;;
74626;SDS011;63132;52.268;5.192;2023-10-08T14:48:00;8.57;;;2.85;;
74626;SDS011;63132;52.268;5.192;2023-10-08T14:50:26;10.23;;;3.38;;
74626;SDS011;63132;52.268;5.192;2023-10-08T14:52:52;11.38;;;3.05;;
74626;SDS011;63132;52.268;5.192;2023-10-08T14:55:19;7.13;;;2.83;;
74626;SDS011;63132;52.268;5.192;2023-10-08T14:57:47;8.93;;;3.35;;
74626;SDS011;63132;52.268;5.192;2023-10-08T15:00:17;8.68;;;2.88;;
74626;SDS011;63132;52.268;5.192;2023-10-08T15:02:49;8.70;;;3.10;;
74626;SDS011;63132;52.268;5.192;2023-10-08T15:05:15;6.07;;;2.90;;
74626;SDS011;63132;52.268;5.192;2023-10-08T15:07:41;15.05;;;7.47;;
74626;SDS011;63132;52.268;5.192;2023-10-08T15:10:07;10.25;;;4.20;;
74626;SDS011;63132;52.268;5.192;2023-10-08T15:12:35;7.50;;;3.35;;
74626;SDS011;63132;52.268;5.192;2023-10-08T15:15:01;5.97;;;2.53;;
74626;SDS011;63132;52.268;5.192;2023-10-08T15:17:38;6.15;;;2.85;;
74626;SDS011;63132;52.268;5.192;2023-10-08T15:20:07;6.72;;;2.30;;
74626;SDS011;63132;52.268;5.192;2023-10-08T15:22:33;5.80;;;2.42;;
74626;SDS011;63132;52.268;5.192;2023-10-08T15:24:58;7.70;;;2.75;;
74626;SDS011;63132;52.268;5.192;2023-10-08T15:27:23;5.82;;;2.28;;